Elephant Butte, NM

7:12 AM MDT on October 24, 2014 (GMT -0600)
Truth Or Consequences Municipal | Change Station
CLOSE
Current Station
Airport
Location: Truth Or Consequences,
Elevation: 4859 ft
Nearby Weather Stations

Elev 4859 ft 33.24 °N, 107.27 °W | Updated 19 minutes ago

Clear
Clear
53 °F
Feels Like 53 °F
N
8
Wind Variable Wind from WNW

Today
High -- | Low -- °F
--% Chance of Precip.
Yesterday
High -- | Low -- °F
Precip. -- in
7:20 AM 6:25 PM
New Moon, 0% visible
Pressure 30.09 in
Visibility 10.0 miles
Clouds Clear
Dew Point 44 °F
Humidity 71%
Rainfall 0.00 in
Snow Depth Not available.
UV 0 out of 12
Pollen 4.80 out of 12
Air Quality Not available.
Flu Activity Sporadic
METAR KTCS 241253Z AUTO 30007KT 10SM CLR 12/07 A3026 RMK AO2 SLP188 T01170067 TSNO

More Conditions Fewer Conditions

Pressure 30.09 in
Visibility 10.0 miles
Clouds Clear
Dew Point 44 °F
Humidity 71%
Rainfall 0.00 in
Snow Depth Not available.
UV 0 out of 12
Pollen 4.80 out of 12
Air Quality Not available.
Flu Activity Sporadic
METAR KTCS 241253Z AUTO 30007KT 10SM CLR 12/07 A3026 RMK AO2 SLP188 T01170067 TSNO

More Conditions Fewer Conditions

10-Day Weather Forecast

Almanac

Astronomy

Oct. 24, 2014 Rise Set
Actual Time 7:20 AM MDT 6:25 PM MDT
Civil Twilight 6:55 AM MDT 6:50 PM MDT
Nautical Twilight 6:26 AM MDT 7:19 PM MDT
Astronomical Twilight 5:57 AM MDT 7:48 PM MDT
Moon 8:01 AM MDT 7:09 PM MDT
Length of Visible Light 11h 55m
Length of Day
11h 04m
Tomorrow will be 1m 53s shorter.
New Moon, 0% of the Moon is Illuminated
Today
New Moon
Oct 30
First Quarter
Nov 6
Full
Nov 14
Last Quarter
Nov 22
New

Today's Extremes

State Highs State Lows

Community

WunderPhotos

Upload Photos

1,764,545 photos uploaded!

Nearby

Snow Depth

Station Depth Elevation
Lookout Mountain 0 in 8500 ft
McKnight Cabin 0 in 9240 ft
Signal Peak 0 in 8360 ft
Silver Creek Divide 1 in 9000 ft
Sierra Blanca 0 in 10280 ft

Earthquake Activity

City Distance Mag. Time & Date
No recent earthquake activity has been reported nearby.
Minimum magnitude displayed is 2.5.

Coastal Water Temperatures

Place Temperature
No Stations Reporting

Nearby Weather Stations